createdAt,value
2018-03-22T00:00:33.118Z,-2.20
2018-03-22T00:03:00.665Z,-2.20
2018-03-22T00:05:28.184Z,-2.20
2018-03-22T00:07:56.466Z,-2.20
2018-03-22T00:10:24.747Z,-2.20
2018-03-22T00:12:52.260Z,-2.20
2018-03-22T00:15:20.547Z,-2.10
2018-03-22T00:17:48.059Z,-2.20
2018-03-22T00:20:16.328Z,-2.10
2018-03-22T00:22:44.645Z,-2.10
2018-03-22T00:25:12.142Z,-2.10
2018-03-22T00:27:39.669Z,-2.10
2018-03-22T00:30:07.184Z,-2.00
2018-03-22T00:32:34.713Z,-2.00
2018-03-22T00:35:02.251Z,-2.10
2018-03-22T00:37:29.820Z,-2.20
2018-03-22T00:39:57.340Z,-2.20
2018-03-22T00:42:24.838Z,-2.30
2018-03-22T00:44:52.365Z,-2.20
2018-03-22T00:47:19.865Z,-2.20
2018-03-22T00:49:47.371Z,-2.30
2018-03-22T00:52:14.909Z,-2.40
2018-03-22T00:54:42.403Z,-2.40
2018-03-22T00:57:09.923Z,-2.40
2018-03-22T00:59:37.423Z,-2.40
2018-03-22T01:02:04.923Z,-2.50
2018-03-22T01:04:32.449Z,-2.50
2018-03-22T01:06:59.951Z,-2.50
2018-03-22T01:09:27.484Z,-2.50
2018-03-22T01:11:54.975Z,-2.60
2018-03-22T01:14:22.481Z,-2.70
2018-03-22T01:16:50.018Z,-2.70
2018-03-22T01:19:17.503Z,-2.70
2018-03-22T01:21:45.049Z,-2.70
2018-03-22T01:24:12.537Z,-2.70
2018-03-22T01:26:40.042Z,-2.70
2018-03-22T01:31:29.439Z,-2.60
2018-03-22T01:33:56.970Z,-2.60
2018-03-22T01:36:24.488Z,-2.60
2018-03-22T01:38:52.767Z,-2.60
2018-03-22T01:41:21.056Z,-2.60
2018-03-22T01:43:48.576Z,-2.60
2018-03-22T01:46:16.106Z,-2.60
2018-03-22T01:48:43.606Z,-2.60
2018-03-22T01:51:11.149Z,-2.60
2018-03-22T01:53:38.670Z,-2.60
2018-03-22T01:56:06.960Z,-2.80
2018-03-22T01:58:35.226Z,-2.80
2018-03-22T02:01:03.503Z,-2.90
2018-03-22T02:03:31.795Z,-3.00
2018-03-22T02:06:00.064Z,-3.00
2018-03-22T02:08:28.352Z,-3.10
2018-03-22T02:10:56.623Z,-3.10
2018-03-22T02:13:24.114Z,-3.10
2018-03-22T02:15:51.638Z,-3.10
2018-03-22T02:18:19.144Z,-3.10
2018-03-22T02:20:47.006Z,-3.10
2018-03-22T02:23:14.498Z,-3.10
2018-03-22T02:25:42.013Z,-3.20
2018-03-22T02:28:10.304Z,-3.30
2018-03-22T02:30:37.799Z,-3.30
2018-03-22T02:33:05.301Z,-3.30
2018-03-22T02:35:32.844Z,-3.30
2018-03-22T02:38:00.358Z,-3.30
2018-03-22T02:40:28.659Z,-3.30
2018-03-22T02:42:56.159Z,-3.30
2018-03-22T02:45:23.675Z,-3.30
2018-03-22T02:47:51.966Z,-3.30
2018-03-22T02:50:19.485Z,-3.40
2018-03-22T02:52:47.014Z,-3.40
2018-03-22T02:55:14.521Z,-3.40
2018-03-22T02:57:42.069Z,-3.40
2018-03-22T03:00:09.558Z,-3.50
2018-03-22T03:02:37.072Z,-3.50
2018-03-22T03:05:04.606Z,-3.60
2018-03-22T03:07:32.114Z,-3.60
2018-03-22T03:09:59.621Z,-3.60
2018-03-22T03:12:27.106Z,-3.50
2018-03-22T03:14:54.615Z,-3.60
2018-03-22T03:17:23.633Z,-3.60
2018-03-22T03:19:51.913Z,-3.50
2018-03-22T03:22:20.201Z,-3.50
2018-03-22T03:24:48.484Z,-3.50
2018-03-22T03:27:15.985Z,-3.50
2018-03-22T03:29:43.510Z,-3.60
2018-03-22T03:32:11.783Z,-3.60
2018-03-22T03:34:40.096Z,-3.70
2018-03-22T03:37:07.586Z,-3.60
2018-03-22T03:39:35.101Z,-3.70
2018-03-22T03:42:02.639Z,-3.70
2018-03-22T03:44:30.138Z,-3.70
2018-03-22T03:46:57.665Z,-3.70
2018-03-22T03:49:25.162Z,-3.70
2018-03-22T03:51:52.665Z,-3.70
2018-03-22T03:54:20.213Z,-3.60
2018-03-22T03:56:47.722Z,-3.60
2018-03-22T03:59:15.254Z,-3.60
2018-03-22T04:01:42.774Z,-3.60
2018-03-22T04:04:11.046Z,-3.60
2018-03-22T04:06:38.546Z,-3.70
2018-03-22T04:09:06.066Z,-3.60
2018-03-22T04:11:34.352Z,-3.60
2018-03-22T04:14:01.864Z,-3.60
2018-03-22T04:16:29.374Z,-3.60
2018-03-22T04:18:56.916Z,-3.60
2018-03-22T04:21:24.414Z,-3.60
2018-03-22T04:23:52.684Z,-3.60
2018-03-22T04:26:20.966Z,-3.60
2018-03-22T04:28:48.481Z,-3.70
2018-03-22T04:31:15.985Z,-3.70
2018-03-22T04:33:43.478Z,-3.70
2018-03-22T04:36:10.982Z,-3.70
2018-03-22T04:38:38.496Z,-3.80
2018-03-22T04:41:06.004Z,-3.80
2018-03-22T04:43:33.537Z,-3.80
2018-03-22T04:46:01.048Z,-3.80
2018-03-22T04:48:28.556Z,-3.80
2018-03-22T04:50:56.079Z,-3.80
2018-03-22T04:53:23.588Z,-3.80
2018-03-22T04:55:51.084Z,-3.80
2018-03-22T04:58:18.599Z,-3.80
2018-03-22T05:00:46.867Z,-3.90
2018-03-22T05:03:15.144Z,-3.90
2018-03-22T05:05:43.455Z,-3.90
2018-03-22T05:08:10.971Z,-3.90
2018-03-22T05:10:38.519Z,-3.90
2018-03-22T05:13:06.039Z,-3.90
2018-03-22T05:15:33.539Z,-3.90
2018-03-22T05:18:01.070Z,-3.90
2018-03-22T05:20:28.585Z,-3.80
2018-03-22T05:22:56.166Z,-3.80
2018-03-22T05:25:23.708Z,-3.80
2018-03-22T05:27:51.214Z,-3.90
2018-03-22T05:30:18.743Z,-3.90
2018-03-22T05:32:46.254Z,-3.90
2018-03-22T05:35:13.763Z,-3.90
2018-03-22T05:37:41.303Z,-4.00
2018-03-22T05:40:08.818Z,-4.10
2018-03-22T05:42:36.385Z,-4.10
2018-03-22T05:45:04.691Z,-4.10
2018-03-22T05:47:32.200Z,-4.10
2018-03-22T05:49:59.738Z,-4.10
2018-03-22T05:52:27.256Z,-4.10
2018-03-22T05:54:54.791Z,-4.10
2018-03-22T05:57:22.341Z,-4.10
2018-03-22T05:59:49.855Z,-4.10
2018-03-22T06:02:18.148Z,-4.00
2018-03-22T06:04:45.667Z,-4.00
2018-03-22T06:07:13.196Z,-3.90
2018-03-22T06:09:40.735Z,-3.90
2018-03-22T06:12:08.268Z,-3.90
2018-03-22T06:14:35.756Z,-3.90
2018-03-22T06:17:03.264Z,-3.90
2018-03-22T06:19:30.792Z,-3.80
2018-03-22T06:21:58.308Z,-3.80
2018-03-22T06:24:25.810Z,-3.90
2018-03-22T06:26:53.332Z,-3.80
2018-03-22T06:29:20.838Z,-3.80
2018-03-22T06:31:48.369Z,-3.80
2018-03-22T06:34:15.870Z,-3.70
2018-03-22T06:36:43.387Z,-3.60
2018-03-22T06:39:10.919Z,-3.50
2018-03-22T06:41:38.408Z,-3.40
2018-03-22T06:44:05.956Z,-3.00
2018-03-22T06:46:33.454Z,-2.70
2018-03-22T06:49:00.951Z,-2.50
2018-03-22T06:51:28.503Z,-2.20
2018-03-22T06:53:56.015Z,-2.10
2018-03-22T06:56:23.543Z,-1.90
2018-03-22T06:58:51.058Z,-1.80
2018-03-22T07:01:18.585Z,-1.60
2018-03-22T07:03:46.099Z,-1.40
2018-03-22T07:06:13.593Z,-1.30
2018-03-22T07:08:41.105Z,-1.30
2018-03-22T07:11:08.728Z,-1.10
2018-03-22T07:13:36.234Z,-1.10
2018-03-22T07:16:03.765Z,-1.00
2018-03-22T07:18:31.259Z,-0.90
2018-03-22T07:20:58.773Z,-0.90
2018-03-22T07:23:26.281Z,-0.80
2018-03-22T07:25:53.843Z,-0.70
2018-03-22T07:28:21.335Z,-0.60
2018-03-22T07:30:48.817Z,-0.40
2018-03-22T07:33:16.309Z,-0.40
2018-03-22T07:35:43.806Z,-0.40
2018-03-22T07:38:11.308Z,-0.50
2018-03-22T07:40:38.881Z,-0.40
2018-03-22T07:43:11.905Z,-0.40
2018-03-22T07:45:39.416Z,-0.20
2018-03-22T07:48:06.908Z,-0.10
2018-03-22T07:50:34.434Z,0.10
2018-03-22T07:53:01.956Z,0.30
2018-03-22T07:55:29.463Z,0.50
2018-03-22T07:57:56.987Z,0.70
2018-03-22T08:00:24.486Z,0.90
2018-03-22T08:02:53.709Z,0.90
2018-03-22T08:05:21.223Z,0.60
2018-03-22T08:07:48.718Z,0.60
2018-03-22T08:10:16.203Z,0.80
2018-03-22T08:12:43.720Z,1.00
2018-03-22T08:15:11.535Z,1.20
2018-03-22T08:17:39.040Z,1.30
2018-03-22T08:20:06.566Z,1.50
2018-03-22T08:22:34.063Z,1.80
2018-03-22T08:25:01.563Z,2.10
2018-03-22T08:27:29.944Z,2.20
2018-03-22T08:29:58.239Z,2.00
2018-03-22T08:32:26.503Z,2.10
2018-03-22T08:34:54.794Z,2.40
2018-03-22T08:37:23.092Z,2.60
2018-03-22T08:39:50.605Z,2.60
2018-03-22T08:42:18.107Z,2.70
2018-03-22T08:44:46.390Z,2.70
2018-03-22T08:47:14.670Z,2.60
2018-03-22T08:49:42.943Z,2.60
2018-03-22T08:52:11.240Z,2.90
2018-03-22T08:54:38.754Z,2.90
2018-03-22T08:57:06.266Z,3.20
2018-03-22T08:59:33.757Z,3.20
2018-03-22T09:02:01.241Z,3.10
2018-03-22T09:04:28.754Z,2.90
2018-03-22T09:06:56.235Z,3.00
2018-03-22T09:09:23.826Z,3.10
2018-03-22T09:11:51.339Z,3.40
2018-03-22T09:14:18.902Z,3.20
2018-03-22T09:16:46.374Z,3.30
2018-03-22T09:19:13.896Z,3.40
2018-03-22T09:21:42.222Z,3.30
2018-03-22T09:24:09.842Z,3.30
2018-03-22T09:26:42.954Z,3.60
2018-03-22T09:29:11.222Z,4.00
2018-03-22T09:31:39.512Z,4.20
2018-03-22T09:34:07.794Z,4.30
2018-03-22T09:36:36.055Z,4.40
2018-03-22T09:39:03.601Z,4.30
2018-03-22T09:41:31.866Z,4.20
2018-03-22T09:43:59.354Z,4.20
2018-03-22T09:46:26.856Z,4.00
2018-03-22T09:48:55.124Z,3.60
2018-03-22T09:51:22.663Z,3.60
2018-03-22T09:53:50.147Z,3.50
2018-03-22T09:56:17.746Z,3.50
2018-03-22T09:58:45.270Z,3.70
2018-03-22T10:01:12.759Z,4.00
2018-03-22T10:03:40.314Z,4.30
2018-03-22T10:06:07.879Z,4.40
2018-03-22T10:08:36.144Z,4.40
2018-03-22T10:11:03.645Z,4.40
2018-03-22T10:13:31.164Z,4.70
2018-03-22T10:15:58.682Z,4.70
2018-03-22T10:18:26.213Z,4.50
2018-03-22T10:20:54.487Z,4.80
2018-03-22T10:23:22.787Z,5.00
2018-03-22T10:25:50.329Z,5.00
2018-03-22T10:28:17.829Z,5.10
2018-03-22T10:30:45.331Z,5.10
2018-03-22T10:33:12.880Z,5.20
2018-03-22T10:35:40.415Z,5.20
2018-03-22T10:38:07.905Z,5.20
2018-03-22T10:40:35.403Z,5.30
2018-03-22T10:43:02.924Z,5.10
2018-03-22T10:45:30.419Z,5.10
2018-03-22T10:47:57.926Z,5.00
2018-03-22T10:50:25.524Z,4.90
2018-03-22T10:52:53.085Z,4.80
2018-03-22T10:55:20.616Z,4.80
2018-03-22T10:57:48.104Z,4.80
2018-03-22T11:00:21.191Z,4.90
2018-03-22T11:02:53.569Z,4.90
2018-03-22T11:05:21.078Z,4.90
2018-03-22T11:07:48.679Z,5.10
2018-03-22T11:10:16.166Z,5.30
2018-03-22T11:12:43.693Z,5.40
2018-03-22T11:15:11.171Z,5.30
2018-03-22T11:17:38.688Z,5.40
2018-03-22T11:20:06.199Z,5.40
2018-03-22T11:22:33.718Z,5.40
2018-03-22T11:25:01.232Z,5.40
2018-03-22T11:27:28.932Z,5.40
2018-03-22T11:29:56.390Z,5.50
2018-03-22T11:32:23.900Z,5.40
2018-03-22T11:34:51.394Z,5.40
2018-03-22T11:37:18.945Z,5.70
2018-03-22T11:39:46.443Z,5.80
2018-03-22T11:42:13.968Z,5.70
2018-03-22T11:44:41.788Z,5.70
2018-03-22T11:47:09.363Z,6.00
2018-03-22T11:49:36.858Z,5.90
2018-03-22T11:52:04.367Z,6.00
2018-03-22T11:54:31.865Z,6.10
2018-03-22T11:57:00.165Z,5.90
2018-03-22T11:59:27.660Z,5.90
2018-03-22T12:01:55.187Z,6.10
2018-03-22T12:04:23.443Z,6.30
2018-03-22T12:06:51.007Z,6.30
2018-03-22T12:09:18.494Z,6.50
2018-03-22T12:11:46.068Z,6.50
2018-03-22T12:14:13.555Z,6.50
2018-03-22T12:16:41.810Z,6.70
2018-03-22T12:19:09.323Z,6.70
2018-03-22T12:21:36.914Z,6.70
2018-03-22T12:24:04.411Z,6.90
2018-03-22T12:26:31.921Z,7.00
2018-03-22T12:28:59.443Z,7.10
2018-03-22T12:31:26.964Z,7.10
2018-03-22T12:33:54.539Z,7.10
2018-03-22T12:36:22.060Z,6.90
2018-03-22T12:38:49.551Z,7.10
2018-03-22T12:41:17.040Z,7.00
2018-03-22T12:43:44.628Z,7.00
2018-03-22T12:46:12.830Z,6.90
2018-03-22T12:48:40.360Z,6.90
2018-03-22T12:51:07.864Z,6.90
2018-03-22T12:53:35.346Z,7.00
2018-03-22T12:56:03.663Z,6.80
2018-03-22T12:58:31.171Z,6.80
2018-03-22T13:00:58.704Z,6.90
2018-03-22T13:03:26.204Z,7.00
2018-03-22T13:05:54.508Z,7.30
2018-03-22T13:08:22.893Z,7.30
2018-03-22T13:10:50.424Z,7.30
2018-03-22T13:13:17.926Z,7.20
2018-03-22T13:15:45.458Z,7.20
2018-03-22T13:18:13.797Z,7.00
2018-03-22T13:20:41.292Z,7.00
2018-03-22T13:23:08.790Z,6.90
2018-03-22T13:25:37.091Z,6.80
2018-03-22T13:28:04.591Z,6.80
2018-03-22T13:30:32.076Z,6.80
2018-03-22T13:32:59.586Z,6.90
2018-03-22T13:35:27.080Z,7.00
2018-03-22T13:37:54.602Z,7.00
2018-03-22T13:40:22.101Z,6.90
2018-03-22T13:42:50.391Z,6.70
2018-03-22T13:45:17.903Z,6.70
2018-03-22T13:47:45.410Z,6.80
2018-03-22T13:50:12.929Z,7.00
2018-03-22T13:52:40.413Z,7.10
2018-03-22T13:55:07.936Z,7.10
2018-03-22T13:57:36.207Z,7.10
2018-03-22T14:00:03.807Z,7.10
2018-03-22T14:02:32.279Z,7.30
2018-03-22T14:04:59.787Z,7.30
2018-03-22T14:07:27.293Z,7.30
2018-03-22T14:09:54.811Z,7.30
2018-03-22T14:12:22.351Z,7.50
2018-03-22T14:14:49.837Z,7.50
2018-03-22T14:17:17.380Z,7.50
2018-03-22T14:19:44.859Z,7.50
2018-03-22T14:22:12.382Z,7.40
2018-03-22T14:24:39.943Z,7.40
2018-03-22T14:27:07.394Z,7.30
2018-03-22T14:29:34.913Z,7.20
2018-03-22T14:32:02.415Z,6.90
2018-03-22T14:34:29.951Z,6.80
2018-03-22T14:36:57.445Z,6.80
2018-03-22T14:39:24.961Z,6.70
2018-03-22T14:41:52.474Z,6.60
2018-03-22T14:44:19.996Z,6.40
2018-03-22T14:46:47.536Z,6.30
2018-03-22T14:49:15.040Z,6.20
2018-03-22T14:51:42.554Z,6.10
2018-03-22T14:54:10.137Z,6.00
2018-03-22T14:56:37.700Z,5.90
2018-03-22T14:59:05.236Z,5.80
2018-03-22T15:01:32.764Z,5.80
2018-03-22T15:04:00.253Z,5.80
2018-03-22T15:06:27.769Z,5.60
2018-03-22T15:08:55.260Z,5.60
2018-03-22T15:11:22.765Z,5.70
2018-03-22T15:13:50.302Z,5.70
2018-03-22T15:16:17.787Z,5.60
2018-03-22T15:18:45.303Z,5.50
2018-03-22T15:21:12.834Z,5.40
2018-03-22T15:23:40.398Z,5.30
2018-03-22T15:26:07.913Z,5.30
2018-03-22T15:28:35.410Z,5.30
2018-03-22T15:31:02.920Z,5.30
2018-03-22T15:33:30.420Z,5.30
2018-03-22T15:35:57.940Z,5.30
2018-03-22T15:38:25.425Z,5.30
2018-03-22T15:40:52.912Z,5.30
2018-03-22T15:43:21.188Z,5.30
2018-03-22T15:45:48.685Z,5.20
2018-03-22T15:48:16.193Z,5.30
2018-03-22T15:50:43.778Z,5.20
2018-03-22T15:53:11.261Z,5.20
2018-03-22T15:55:38.771Z,5.10
2018-03-22T15:58:07.060Z,5.10
2018-03-22T16:00:34.582Z,5.10
2018-03-22T16:03:02.097Z,5.10
2018-03-22T16:05:30.382Z,5.10
2018-03-22T16:07:57.893Z,5.00
2018-03-22T16:10:25.459Z,5.00
2018-03-22T16:12:52.975Z,5.00
2018-03-22T16:15:21.227Z,5.00
2018-03-22T16:17:48.753Z,5.00
2018-03-22T16:20:16.259Z,5.00
2018-03-22T16:22:43.796Z,5.00
2018-03-22T16:25:11.307Z,4.90
2018-03-22T16:27:39.579Z,4.90
2018-03-22T16:30:07.873Z,4.90
2018-03-22T16:32:36.156Z,4.90
2018-03-22T16:35:04.461Z,4.80
2018-03-22T16:37:32.101Z,4.80
2018-03-22T16:40:00.362Z,4.70
2018-03-22T16:42:27.898Z,4.70
2018-03-22T16:44:55.401Z,4.70
2018-03-22T16:47:23.479Z,4.80
2018-03-22T16:49:50.983Z,4.80
2018-03-22T16:52:18.488Z,4.70
2018-03-22T16:54:46.015Z,4.70
2018-03-22T16:57:13.543Z,4.60
2018-03-22T16:59:41.060Z,4.60
2018-03-22T17:02:08.558Z,4.60
2018-03-22T17:04:36.051Z,4.50
2018-03-22T17:07:03.591Z,4.60
2018-03-22T17:09:31.103Z,4.40
2018-03-22T17:11:58.608Z,4.30
2018-03-22T17:14:26.125Z,4.30
2018-03-22T17:16:53.639Z,4.20
2018-03-22T17:19:21.297Z,4.10
2018-03-22T17:21:48.760Z,3.90
2018-03-22T17:24:16.270Z,3.90
2018-03-22T17:26:43.774Z,3.80
2018-03-22T17:29:12.253Z,3.60
2018-03-22T17:31:39.755Z,3.50
2018-03-22T17:34:07.349Z,3.40
2018-03-22T17:36:34.869Z,3.20
2018-03-22T17:39:03.157Z,3.10
2018-03-22T17:41:31.459Z,3.10
2018-03-22T17:43:59.000Z,3.10
2018-03-22T17:46:26.536Z,3.10
2018-03-22T17:48:54.097Z,3.10
2018-03-22T17:51:21.640Z,3.10
2018-03-22T17:53:49.179Z,3.10
2018-03-22T17:56:16.801Z,3.10
2018-03-22T17:58:44.329Z,3.10
2018-03-22T18:01:11.841Z,3.00
2018-03-22T18:03:39.425Z,3.00
2018-03-22T18:06:06.998Z,3.00
2018-03-22T18:08:34.508Z,2.90
2018-03-22T18:11:02.138Z,2.90
2018-03-22T18:13:29.672Z,2.90
2018-03-22T18:15:57.971Z,2.80
2018-03-22T18:18:25.464Z,2.80
2018-03-22T18:20:52.989Z,2.80
2018-03-22T18:23:20.510Z,2.70
2018-03-22T18:25:48.015Z,2.70
2018-03-22T18:28:15.544Z,2.70
2018-03-22T18:30:43.162Z,2.70
2018-03-22T18:33:10.682Z,2.70
2018-03-22T18:35:38.190Z,2.70
2018-03-22T18:38:05.689Z,2.60
2018-03-22T18:40:33.295Z,2.60
2018-03-22T18:43:00.808Z,2.60
2018-03-22T18:45:28.318Z,2.60
2018-03-22T18:47:55.874Z,2.50
2018-03-22T18:50:24.150Z,2.40
2018-03-22T18:52:52.509Z,2.40
2018-03-22T18:55:20.005Z,2.40
2018-03-22T18:57:47.516Z,2.30
2018-03-22T19:00:15.026Z,2.30
2018-03-22T19:02:42.527Z,2.30
2018-03-22T19:05:10.049Z,2.30
2018-03-22T19:07:37.569Z,2.30
2018-03-22T19:10:05.095Z,2.30
2018-03-22T19:12:32.791Z,2.30
2018-03-22T19:15:00.307Z,2.30
2018-03-22T19:17:27.817Z,2.30
2018-03-22T19:19:55.303Z,2.30
2018-03-22T19:22:22.795Z,2.30
2018-03-22T19:24:50.320Z,2.30
2018-03-22T19:27:17.830Z,2.30
2018-03-22T19:29:45.345Z,2.30
2018-03-22T19:32:12.850Z,2.30
2018-03-22T19:34:41.123Z,2.10
2018-03-22T19:37:08.751Z,2.10
2018-03-22T19:39:36.201Z,2.10
2018-03-22T19:42:03.703Z,2.10
2018-03-22T19:44:31.210Z,2.10
2018-03-22T19:46:58.708Z,2.00
2018-03-22T19:49:26.218Z,2.00
2018-03-22T19:51:54.492Z,2.00
2018-03-22T19:54:22.028Z,2.00
2018-03-22T19:56:49.544Z,1.90
2018-03-22T19:59:17.038Z,1.90
2018-03-22T20:01:44.638Z,1.90
2018-03-22T20:04:12.167Z,1.90
2018-03-22T20:06:39.716Z,2.00
2018-03-22T20:09:07.208Z,2.00
2018-03-22T20:11:34.738Z,2.00
2018-03-22T20:14:02.256Z,2.10
2018-03-22T20:16:29.756Z,2.10
2018-03-22T20:18:57.279Z,2.00
2018-03-22T20:21:24.768Z,2.00
2018-03-22T20:23:53.046Z,2.00
2018-03-22T20:26:21.310Z,1.90
2018-03-22T20:28:48.838Z,1.90
2018-03-22T20:31:16.332Z,1.80
2018-03-22T20:33:43.878Z,1.80
2018-03-22T20:36:12.181Z,1.70
2018-03-22T20:38:39.722Z,1.70
2018-03-22T20:41:07.258Z,1.80
2018-03-22T20:43:34.847Z,1.80
2018-03-22T20:46:02.375Z,1.80
2018-03-22T20:48:29.888Z,1.70
2018-03-22T20:50:57.402Z,1.70
2018-03-22T20:53:24.908Z,1.60
2018-03-22T20:55:52.423Z,1.50
2018-03-22T20:58:19.929Z,1.50
2018-03-22T21:00:48.239Z,1.40
2018-03-22T21:03:15.797Z,1.40
2018-03-22T21:05:43.341Z,1.40
2018-03-22T21:08:10.865Z,1.30
2018-03-22T21:10:38.416Z,1.20
2018-03-22T21:13:05.999Z,1.20
2018-03-22T21:15:33.496Z,1.20
2018-03-22T21:18:01.033Z,1.20
2018-03-22T21:20:28.549Z,1.20
2018-03-22T21:22:56.054Z,1.20
2018-03-22T21:25:23.567Z,1.20
2018-03-22T21:27:51.064Z,1.20
2018-03-22T21:30:18.564Z,1.20
2018-03-22T21:32:46.095Z,1.20
2018-03-22T21:35:13.602Z,1.10
2018-03-22T21:37:41.133Z,1.10
2018-03-22T21:40:08.648Z,1.10
2018-03-22T21:42:36.193Z,1.10
2018-03-22T21:45:04.539Z,1.10
2018-03-22T21:47:32.085Z,1.10
2018-03-22T21:49:59.601Z,1.10
2018-03-22T21:52:38.957Z,1.10
2018-03-22T21:55:06.451Z,1.00
2018-03-22T21:57:33.993Z,1.00
2018-03-22T22:00:01.548Z,1.00
2018-03-22T22:02:29.074Z,1.00
2018-03-22T22:04:56.629Z,1.00
2018-03-22T22:07:24.904Z,1.00
2018-03-22T22:09:52.472Z,1.00
2018-03-22T22:12:19.939Z,1.00
2018-03-22T22:14:47.441Z,1.00
2018-03-22T22:17:14.951Z,1.00
2018-03-22T22:19:42.492Z,1.00
2018-03-22T22:22:10.002Z,1.10
2018-03-22T22:24:37.577Z,1.10
2018-03-22T22:27:05.090Z,1.00
2018-03-22T22:29:32.636Z,1.00
2018-03-22T22:32:00.911Z,1.00
2018-03-22T22:34:28.420Z,1.00
2018-03-22T22:36:55.932Z,1.00
2018-03-22T22:39:23.418Z,1.00
2018-03-22T22:41:51.650Z,1.00
2018-03-22T22:44:19.192Z,1.00
2018-03-22T22:46:46.680Z,1.00
2018-03-22T22:49:14.199Z,1.00
2018-03-22T22:51:41.709Z,1.00
2018-03-22T22:54:09.205Z,1.00
2018-03-22T22:56:36.729Z,1.00
2018-03-22T22:59:04.278Z,1.00
2018-03-22T23:01:31.811Z,1.10
2018-03-22T23:03:59.303Z,1.10
2018-03-22T23:06:26.812Z,1.10
2018-03-22T23:08:54.339Z,1.20
2018-03-22T23:11:21.846Z,1.20
2018-03-22T23:13:49.368Z,1.20
2018-03-22T23:16:16.883Z,1.20
2018-03-22T23:18:44.375Z,1.20
2018-03-22T23:21:11.895Z,1.20
2018-03-22T23:23:39.401Z,1.10
2018-03-22T23:26:06.949Z,1.10
2018-03-22T23:28:34.457Z,1.10
2018-03-22T23:31:01.980Z,1.10
2018-03-22T23:33:29.512Z,1.10
2018-03-22T23:35:57.018Z,1.20
2018-03-22T23:38:24.560Z,1.20
2018-03-22T23:40:52.812Z,1.10
2018-03-22T23:43:20.310Z,1.10
2018-03-22T23:45:47.914Z,1.10
2018-03-22T23:48:15.415Z,1.10
2018-03-22T23:50:42.922Z,1.10
2018-03-22T23:53:10.422Z,1.20
2018-03-22T23:55:37.904Z,1.20
2018-03-22T23:58:06.192Z,1.20
